ASG700 GOBD-GABS
Flight info
| Callsign | ASG700 |
|---|---|
| Flight time | N/A |
| Altitude | 45000 |
| Route | NURAS1B NURAS DCT SISNU UA601 PINVO DCT BIDOK BIDOK5D |
| Aircraft | C700/M-SBDGHM1RWXY/LB2 |
Departure
| Time | 2026-05-08 23:07 |
|---|---|
| Airport | Blaise Diagne International Airport (GOBD) |
Arrival
| Time | N/A |
|---|---|
| Airport | Modibo Keita International Airport (GABS) |
| Time | Latitude | Longitude | Altitude | Speed | Heading |
|---|---|---|---|---|---|
| 2026-05-08 22:30 | 14.67753 | -17.06754 | 296 ft | 0 kts | 90° |
| 2026-05-08 22:55 | 14.67753 | -17.06758 | 296 ft | 4 kts | 90° |
| 2026-05-08 22:55 | 14.67755 | -17.06784 | 296 ft | 3 kts | 103° |
| 2026-05-08 22:55 | 14.67762 | -17.06797 | 298 ft | 2 kts | 147° |
| 2026-05-08 22:55 | 14.67772 | -17.06801 | 297 ft | 2 kts | 177° |
| 2026-05-08 22:56 | 14.67774 | -17.06801 | 296 ft | 0 kts | 178° |
| 2026-05-08 22:57 | 14.67773 | -17.06801 | 296 ft | 0 kts | 178° |
| 2026-05-08 22:58 | 14.67760 | -17.06800 | 298 ft | 5 kts | 178° |
| 2026-05-08 22:58 | 14.67707 | -17.06811 | 299 ft | 8 kts | 247° |
| 2026-05-08 22:58 | 14.67703 | -17.06888 | 296 ft | 14 kts | 270° |
| 2026-05-08 22:58 | 14.67680 | -17.06987 | 298 ft | 4 kts | 189° |
| 2026-05-08 22:59 | 14.67632 | -17.06983 | 296 ft | 11 kts | 178° |
| 2026-05-08 22:59 | 14.67550 | -17.06994 | 298 ft | 9 kts | 230° |
| 2026-05-08 22:59 | 14.67528 | -17.07077 | 296 ft | 15 kts | 232° |
| 2026-05-08 22:59 | 14.67403 | -17.07095 | 300 ft | 23 kts | 179° |
| 2026-05-08 23:00 | 14.67213 | -17.07094 | 296 ft | 31 kts | 179° |
| 2026-05-08 23:00 | 14.66968 | -17.07089 | 296 ft | 39 kts | 181° |
| 2026-05-08 23:00 | 14.66822 | -17.07089 | 296 ft | 19 kts | 180° |
| 2026-05-08 23:00 | 14.66661 | -17.07087 | 296 ft | 26 kts | 179° |
| 2026-05-08 23:01 | 14.66453 | -17.07086 | 296 ft | 33 kts | 179° |
| 2026-05-08 23:01 | 14.66200 | -17.07082 | 296 ft | 39 kts | 179° |
| 2026-05-08 23:01 | 14.65909 | -17.07080 | 296 ft | 43 kts | 180° |
| 2026-05-08 23:01 | 14.65781 | -17.07078 | 296 ft | 15 kts | 179° |
| 2026-05-08 23:02 | 14.65669 | -17.07078 | 299 ft | 18 kts | 180° |
| 2026-05-08 23:02 | 14.65619 | -17.07090 | 300 ft | 2 kts | 270° |
| 2026-05-08 23:02 | 14.65619 | -17.07106 | 296 ft | 3 kts | 271° |
| 2026-05-08 23:02 | 14.65619 | -17.07143 | 296 ft | 7 kts | 270° |
| 2026-05-08 23:03 | 14.65619 | -17.07153 | 296 ft | 0 kts | 269° |
| 2026-05-08 23:05 | 14.65619 | -17.07156 | 296 ft | 0 kts | 270° |
| 2026-05-08 23:06 | 14.65619 | -17.07161 | 296 ft | 3 kts | 269° |
| 2026-05-08 23:06 | 14.65619 | -17.07214 | 295 ft | 12 kts | 271° |
| 2026-05-08 23:06 | 14.65664 | -17.07269 | 297 ft | 13 kts | 357° |
| 2026-05-08 23:06 | 14.65892 | -17.07272 | 296 ft | 67 kts | 360° |
| 2026-05-08 23:07 | 14.66622 | -17.07280 | 299 ft | 140 kts | 359° |
| 2026-05-08 23:07 | 14.67695 | -17.07254 | 773 ft | 167 kts | 1° |
| 2026-05-08 23:07 | 14.69012 | -17.07184 | 1134 ft | 211 kts | 2° |
| 2026-05-08 23:07 | 14.70616 | -17.07248 | 1747 ft | 247 kts | 355° |
| 2026-05-08 23:08 | 14.72322 | -17.07367 | 2364 ft | 235 kts | 359° |
| 2026-05-08 23:08 | 14.73892 | -17.07361 | 2951 ft | 221 kts | 1° |
| 2026-05-08 23:08 | 14.75509 | -17.07357 | 3564 ft | 245 kts | 360° |
| 2026-05-08 23:08 | 14.77230 | -17.07146 | 4220 ft | 255 kts | 16° |
| 2026-05-08 23:09 | 14.78859 | -17.06439 | 4929 ft | 261 kts | 29° |
| 2026-05-08 23:09 | 14.80337 | -17.05256 | 5658 ft | 267 kts | 44° |
| 2026-05-08 23:09 | 14.81459 | -17.03707 | 6397 ft | 274 kts | 60° |
| 2026-05-08 23:09 | 14.82145 | -17.01864 | 7106 ft | 276 kts | 76° |
| 2026-05-08 23:10 | 14.82326 | -16.99886 | 7842 ft | 277 kts | 90° |
| 2026-05-08 23:10 | 14.82327 | -16.97888 | 8614 ft | 277 kts | 90° |
| 2026-05-08 23:10 | 14.82356 | -16.95895 | 9412 ft | 279 kts | 90° |
| 2026-05-08 23:10 | 14.82373 | -16.93907 | 10442 ft | 255 kts | 91° |
| 2026-05-08 23:11 | 14.82383 | -16.91949 | 10994 ft | 294 kts | 91° |
| 2026-05-08 23:11 | 14.82395 | -16.89743 | 11009 ft | 322 kts | 91° |
| 2026-05-08 23:11 | 14.82285 | -16.87324 | 11012 ft | 353 kts | 100° |
| 2026-05-08 23:11 | 14.81570 | -16.84878 | 11843 ft | 347 kts | 113° |
| 2026-05-08 23:12 | 14.80650 | -16.82683 | 14117 ft | 321 kts | 115° |
| 2026-05-08 23:12 | 14.79753 | -16.80538 | 15442 ft | 332 kts | 115° |
| 2026-05-08 23:12 | 14.78789 | -16.78326 | 16535 ft | 342 kts | 116° |
| 2026-05-08 23:12 | 14.77795 | -16.76063 | 17698 ft | 350 kts | 115° |
| 2026-05-08 23:13 | 14.76794 | -16.73738 | 18741 ft | 358 kts | 115° |
| 2026-05-08 23:13 | 14.75776 | -16.71358 | 19717 ft | 366 kts | 116° |
| 2026-05-08 23:13 | 14.74729 | -16.68939 | 20683 ft | 372 kts | 116° |
| 2026-05-08 23:13 | 14.73658 | -16.66471 | 21632 ft | 380 kts | 116° |
| 2026-05-08 23:14 | 14.72569 | -16.63951 | 22570 ft | 386 kts | 116° |
| 2026-05-08 23:14 | 14.71465 | -16.61392 | 23505 ft | 393 kts | 116° |
| 2026-05-08 23:14 | 14.70343 | -16.58799 | 24230 ft | 400 kts | 116° |
| 2026-05-08 23:14 | 14.69193 | -16.56144 | 24936 ft | 408 kts | 117° |
| 2026-05-08 23:15 | 14.68023 | -16.53441 | 25644 ft | 415 kts | 117° |
| 2026-05-08 23:15 | 14.66834 | -16.50693 | 26346 ft | 422 kts | 117° |
| 2026-05-08 23:15 | 14.65621 | -16.47893 | 27031 ft | 429 kts | 117° |
| 2026-05-08 23:15 | 14.64407 | -16.45094 | 27707 ft | 436 kts | 117° |
| 2026-05-08 23:16 | 14.63160 | -16.42217 | 28378 ft | 443 kts | 117° |
| 2026-05-08 23:16 | 14.61894 | -16.39299 | 29017 ft | 449 kts | 117° |
| 2026-05-08 23:16 | 14.60600 | -16.36315 | 29649 ft | 456 kts | 117° |
| 2026-05-08 23:16 | 14.59292 | -16.33304 | 30255 ft | 462 kts | 117° |
| 2026-05-08 23:17 | 14.57974 | -16.30266 | 30893 ft | 465 kts | 117° |
| 2026-05-08 23:17 | 14.56644 | -16.27204 | 31540 ft | 468 kts | 117° |
| 2026-05-08 23:17 | 14.55307 | -16.24129 | 32155 ft | 471 kts | 118° |
| 2026-05-08 23:17 | 14.53964 | -16.21042 | 32743 ft | 474 kts | 118° |
| 2026-05-08 23:18 | 14.52605 | -16.17916 | 33358 ft | 476 kts | 118° |
| 2026-05-08 23:18 | 14.51256 | -16.14813 | 34164 ft | 472 kts | 118° |
| 2026-05-08 23:18 | 14.49916 | -16.11735 | 34873 ft | 469 kts | 118° |
| 2026-05-08 23:18 | 14.48591 | -16.08695 | 35586 ft | 466 kts | 118° |
| 2026-05-08 23:19 | 14.47256 | -16.05631 | 36316 ft | 463 kts | 118° |
| 2026-05-08 23:19 | 14.45941 | -16.02614 | 36983 ft | 461 kts | 118° |
| 2026-05-08 23:19 | 14.44630 | -15.99607 | 37610 ft | 458 kts | 119° |
| 2026-05-08 23:19 | 14.43323 | -15.96613 | 38194 ft | 457 kts | 119° |
| 2026-05-08 23:20 | 14.42018 | -15.93623 | 38709 ft | 455 kts | 119° |
| 2026-05-08 23:20 | 14.40717 | -15.90646 | 39092 ft | 455 kts | 119° |
| 2026-05-08 23:20 | 14.39418 | -15.87671 | 39440 ft | 454 kts | 119° |
| 2026-05-08 23:20 | 14.38119 | -15.84699 | 39774 ft | 454 kts | 118° |
| 2026-05-08 23:21 | 14.36840 | -15.81773 | 40089 ft | 454 kts | 118° |
| 2026-05-08 23:21 | 14.35538 | -15.78796 | 40396 ft | 454 kts | 118° |
| 2026-05-08 23:21 | 14.34240 | -15.75831 | 40688 ft | 454 kts | 118° |
| 2026-05-08 23:21 | 14.32942 | -15.72863 | 40963 ft | 454 kts | 118° |
| 2026-05-08 23:22 | 14.31646 | -15.69905 | 41224 ft | 454 kts | 118° |
| 2026-05-08 23:22 | 14.30344 | -15.66933 | 41476 ft | 453 kts | 118° |
| 2026-05-08 23:22 | 14.29046 | -15.63969 | 41722 ft | 453 kts | 118° |
| 2026-05-08 23:22 | 14.28508 | -15.62741 | 41815 ft | 453 kts | 118° |
| 2026-05-08 23:23 | 14.27642 | -15.60767 | 41967 ft | 453 kts | 118° |
| 2026-05-08 23:23 | 14.26341 | -15.57801 | 42190 ft | 453 kts | 118° |
| 2026-05-08 23:23 | 14.25041 | -15.54839 | 42395 ft | 453 kts | 118° |
| 2026-05-08 23:24 | 14.23743 | -15.51881 | 42595 ft | 453 kts | 118° |
| 2026-05-08 23:24 | 14.22456 | -15.48907 | 42794 ft | 454 kts | 115° |
| 2026-05-08 23:24 | 14.21516 | -15.45797 | 42975 ft | 457 kts | 108° |
| 2026-05-08 23:24 | 14.20697 | -15.42626 | 43150 ft | 457 kts | 109° |
| 2026-05-08 23:25 | 14.19834 | -15.39478 | 43334 ft | 456 kts | 109° |
| 2026-05-08 23:25 | 14.18972 | -15.36324 | 43498 ft | 457 kts | 108° |
| 2026-05-08 23:25 | 14.18136 | -15.33161 | 43655 ft | 457 kts | 108° |
| 2026-05-08 23:25 | 14.17308 | -15.30035 | 43819 ft | 456 kts | 108° |
| 2026-05-08 23:26 | 14.16451 | -15.26860 | 43965 ft | 456 kts | 109° |
| 2026-05-08 23:26 | 14.15600 | -15.23716 | 44103 ft | 456 kts | 108° |
| 2026-05-08 23:26 | 14.14755 | -15.20559 | 44242 ft | 456 kts | 108° |
| 2026-05-08 23:26 | 14.13912 | -15.17408 | 44374 ft | 456 kts | 108° |
| 2026-05-08 23:27 | 14.13064 | -15.14260 | 44506 ft | 456 kts | 108° |
| 2026-05-08 23:27 | 14.12831 | -15.13394 | 44536 ft | 456 kts | 108° |